createdAt,value
2019-06-26T00:01:42.695Z,19.93
2019-06-26T00:04:10.616Z,18.17
2019-06-26T00:06:38.418Z,17.20
2019-06-26T00:09:09.625Z,16.53
2019-06-26T00:11:37.472Z,18.93
2019-06-26T00:14:05.866Z,18.45
2019-06-26T00:16:33.608Z,19.00
2019-06-26T00:19:01.469Z,18.40
2019-06-26T00:21:29.181Z,18.63
2019-06-26T00:23:56.863Z,19.33
2019-06-26T00:26:24.537Z,20.17
2019-06-26T00:28:52.318Z,19.17
2019-06-26T00:31:19.959Z,18.97
2019-06-26T00:33:48.094Z,18.23
2019-06-26T00:36:15.823Z,19.03
2019-06-26T00:38:43.487Z,19.00
2019-06-26T00:41:11.490Z,19.37
2019-06-26T00:43:42.637Z,18.13
2019-06-26T00:46:09.063Z,17.90
2019-06-26T00:48:36.955Z,17.83
2019-06-26T00:51:05.032Z,17.50
2019-06-26T00:53:32.688Z,17.53
2019-06-26T00:56:00.442Z,18.53
2019-06-26T00:58:28.086Z,18.80
2019-06-26T01:00:55.767Z,18.47
2019-06-26T01:03:23.539Z,20.40
2019-06-26T01:05:51.611Z,20.40
2019-06-26T01:08:19.461Z,18.77
2019-06-26T01:10:47.249Z,18.17
2019-06-26T01:13:14.883Z,19.20
2019-06-26T01:15:42.640Z,18.50
2019-06-26T01:18:10.743Z,19.37
2019-06-26T01:20:38.479Z,18.93
2019-06-26T01:23:06.529Z,18.10
2019-06-26T01:25:34.688Z,19.13
2019-06-26T01:28:02.362Z,19.07
2019-06-26T01:30:30.008Z,17.83
2019-06-26T01:32:58.030Z,19.00
2019-06-26T01:35:25.809Z,19.70
2019-06-26T01:37:53.461Z,20.50
2019-06-26T01:40:21.149Z,18.60
2019-06-26T01:42:49.212Z,19.63
2019-06-26T01:45:16.883Z,20.67
2019-06-26T01:47:44.622Z,18.43
2019-06-26T01:50:12.694Z,20.13
2019-06-26T01:52:40.353Z,19.73
2019-06-26T01:55:08.008Z,19.43
2019-06-26T01:57:36.066Z,19.47
2019-06-26T02:00:05.167Z,20.47
2019-06-26T02:02:32.876Z,19.13
2019-06-26T02:05:00.900Z,21.07
2019-06-26T02:07:28.638Z,21.70
2019-06-26T02:09:56.289Z,21.40
2019-06-26T02:12:24.430Z,20.90
2019-06-26T02:14:52.443Z,22.37
2019-06-26T02:17:20.529Z,21.27
2019-06-26T02:19:48.228Z,20.67
2019-06-26T02:22:15.941Z,20.77
2019-06-26T02:24:43.924Z,20.57
2019-06-26T02:27:12.014Z,20.47
2019-06-26T02:29:39.695Z,20.50
2019-06-26T02:32:07.467Z,21.17
2019-06-26T02:34:35.462Z,20.53
2019-06-26T02:37:03.194Z,19.93
2019-06-26T02:39:30.901Z,21.13
2019-06-26T02:41:58.860Z,20.00
2019-06-26T02:44:26.560Z,19.90
2019-06-26T02:46:54.230Z,20.57
2019-06-26T02:49:21.964Z,21.73
2019-06-26T02:51:49.647Z,21.17
2019-06-26T02:54:17.392Z,22.00
2019-06-26T02:56:45.422Z,20.67
2019-06-26T02:59:13.132Z,22.17
2019-06-26T03:01:40.805Z,21.47
2019-06-26T03:04:08.527Z,21.47
2019-06-26T03:06:36.298Z,20.57
2019-06-26T03:09:05.905Z,20.13
2019-06-26T03:11:33.776Z,20.93
2019-06-26T03:14:01.512Z,21.13
2019-06-26T03:16:29.509Z,20.43
2019-06-26T03:18:57.177Z,19.73
2019-06-26T03:21:24.902Z,20.67
2019-06-26T03:23:52.586Z,18.77
2019-06-26T03:26:20.363Z,18.67
2019-06-26T03:28:48.042Z,19.23
2019-06-26T03:31:15.769Z,19.17
2019-06-26T03:33:43.469Z,18.80
2019-06-26T03:36:11.301Z,16.67
2019-06-26T03:38:39.008Z,17.87
2019-06-26T03:41:06.729Z,19.57
2019-06-26T03:43:35.628Z,17.67
2019-06-26T03:46:03.765Z,17.47
2019-06-26T03:48:31.430Z,18.23
2019-06-26T03:50:59.199Z,17.53
2019-06-26T03:53:26.868Z,16.90
2019-06-26T03:55:54.960Z,17.03
2019-06-26T03:58:22.863Z,16.63
2019-06-26T04:00:50.511Z,17.13
2019-06-26T04:03:18.587Z,17.07
2019-06-26T04:05:46.324Z,18.07
2019-06-26T04:08:14.324Z,16.57
2019-06-26T04:10:43.433Z,15.93
2019-06-26T04:13:11.462Z,16.67
2019-06-26T04:15:42.603Z,15.97
2019-06-26T04:18:09.281Z,14.83
2019-06-26T04:20:37.140Z,15.50
2019-06-26T04:23:04.798Z,15.07
2019-06-26T04:25:32.801Z,14.93
2019-06-26T04:28:00.530Z,14.90
2019-06-26T04:30:28.461Z,14.97
2019-06-26T04:32:56.506Z,15.40
2019-06-26T04:35:24.256Z,13.83
2019-06-26T04:37:52.205Z,13.77
2019-06-26T04:40:20.554Z,14.43
2019-06-26T04:42:48.409Z,14.97
2019-06-26T04:45:16.217Z,15.20
2019-06-26T04:47:44.560Z,14.47
2019-06-26T04:50:13.703Z,15.00
2019-06-26T04:52:41.455Z,15.00
2019-06-26T04:55:09.320Z,14.63
2019-06-26T04:57:36.962Z,15.23
2019-06-26T05:00:06.123Z,14.05
2019-06-26T05:02:34.174Z,15.10
2019-06-26T05:05:02.266Z,13.17
2019-06-26T05:07:29.929Z,15.03
2019-06-26T05:09:57.577Z,15.80
2019-06-26T05:12:25.517Z,16.70
2019-06-26T05:14:53.274Z,14.63
2019-06-26T05:17:20.949Z,14.07
2019-06-26T05:19:48.837Z,14.37
2019-06-26T05:22:16.892Z,14.63
2019-06-26T05:24:46.539Z,14.57
2019-06-26T05:27:14.297Z,14.13
2019-06-26T05:29:42.163Z,13.40
2019-06-26T05:32:09.837Z,12.73
2019-06-26T05:34:37.572Z,13.30
2019-06-26T05:37:05.726Z,13.70
2019-06-26T05:39:33.770Z,13.10
2019-06-26T05:42:01.739Z,13.13
2019-06-26T05:44:29.711Z,12.70
2019-06-26T05:46:57.350Z,11.27
2019-06-26T05:49:25.210Z,11.87
2019-06-26T05:51:52.856Z,14.23
2019-06-26T05:54:20.573Z,12.33
2019-06-26T05:56:48.725Z,12.80
2019-06-26T05:59:16.442Z,11.00
2019-06-26T06:01:44.077Z,12.50
2019-06-26T06:04:12.120Z,12.23
2019-06-26T06:06:42.135Z,11.57
2019-06-26T06:09:09.506Z,13.03
2019-06-26T06:11:37.315Z,12.97
2019-06-26T06:14:05.879Z,12.00
2019-06-26T06:16:46.182Z,12.10
2019-06-26T06:19:02.901Z,10.80
2019-06-26T06:21:30.581Z,12.30
2019-06-26T06:23:58.327Z,12.00
2019-06-26T06:26:26.044Z,8.90
2019-06-26T06:28:53.918Z,11.13
2019-06-26T06:31:21.556Z,11.33
2019-06-26T06:33:49.275Z,11.57
2019-06-26T06:36:16.905Z,13.57
2019-06-26T06:38:44.932Z,10.07
2019-06-26T06:41:12.596Z,12.60
2019-06-26T06:43:40.588Z,7.57
2019-06-26T06:46:08.262Z,11.63
2019-06-26T06:48:36.391Z,10.67
2019-06-26T06:51:04.766Z,10.60
2019-06-26T06:53:32.443Z,10.80
2019-06-26T06:56:00.550Z,10.47
2019-06-26T06:58:30.251Z,11.93
2019-06-26T07:00:57.544Z,10.23
2019-06-26T07:03:25.534Z,10.70
2019-06-26T07:05:53.293Z,12.20
2019-06-26T07:08:21.347Z,11.73
2019-06-26T07:10:49.034Z,11.80
2019-06-26T07:13:16.669Z,9.13
2019-06-26T07:15:44.381Z,10.73
2019-06-26T07:18:12.049Z,8.63
2019-06-26T07:20:39.779Z,9.23
2019-06-26T07:23:07.412Z,9.30
2019-06-26T07:25:35.279Z,9.37
2019-06-26T07:28:03.039Z,10.10
2019-06-26T07:30:30.645Z,10.77
2019-06-26T07:32:58.665Z,9.70
2019-06-26T07:35:26.421Z,8.50
2019-06-26T07:37:54.522Z,10.17
2019-06-26T07:40:22.157Z,9.80
2019-06-26T07:42:50.121Z,9.37
2019-06-26T07:45:17.844Z,9.00
2019-06-26T07:47:45.577Z,8.87
2019-06-26T07:50:13.400Z,10.47
2019-06-26T07:52:41.045Z,8.10
2019-06-26T07:55:11.789Z,7.27
2019-06-26T07:57:38.366Z,9.10
2019-06-26T08:00:06.387Z,7.63
2019-06-26T08:02:34.514Z,9.70
2019-06-26T08:05:02.188Z,8.33
2019-06-26T08:07:29.863Z,9.90
2019-06-26T08:09:57.563Z,8.10
2019-06-26T08:12:25.258Z,8.43
2019-06-26T08:14:53.137Z,8.60
2019-06-26T08:17:21.493Z,5.93
2019-06-26T08:19:49.138Z,9.70
2019-06-26T08:22:17.010Z,7.17
2019-06-26T08:24:45.378Z,9.57
2019-06-26T08:27:13.338Z,9.07
2019-06-26T08:29:40.990Z,9.20
2019-06-26T08:32:09.018Z,9.20
2019-06-26T08:34:37.056Z,10.37
2019-06-26T08:37:04.706Z,9.70
2019-06-26T08:39:32.427Z,10.03
2019-06-26T08:42:00.181Z,8.77
2019-06-26T08:44:27.893Z,7.10
2019-06-26T08:46:55.725Z,8.57
2019-06-26T08:49:26.064Z,8.70
2019-06-26T08:51:52.919Z,9.23
2019-06-26T08:54:20.906Z,9.30
2019-06-26T08:56:48.877Z,9.67
2019-06-26T08:59:16.772Z,8.30
2019-06-26T09:01:44.409Z,9.67
2019-06-26T09:04:12.115Z,8.77
2019-06-26T09:06:40.518Z,7.07
2019-06-26T09:09:08.511Z,6.63
2019-06-26T09:11:36.366Z,8.87
2019-06-26T09:14:04.066Z,9.67
2019-06-26T09:16:31.932Z,9.10
2019-06-26T09:18:59.568Z,7.73
2019-06-26T09:21:30.947Z,7.80
2019-06-26T09:23:57.217Z,9.53
2019-06-26T09:26:24.935Z,7.47
2019-06-26T09:28:52.631Z,9.03
2019-06-26T09:31:20.490Z,9.63
2019-06-26T09:33:48.373Z,6.13
2019-06-26T09:36:16.262Z,9.20
2019-06-26T09:38:43.934Z,11.07
2019-06-26T09:41:11.977Z,10.27
2019-06-26T09:43:39.840Z,10.47
2019-06-26T09:46:07.814Z,9.37
2019-06-26T09:48:51.462Z,11.13
2019-06-26T09:51:04.990Z,10.50
2019-06-26T09:53:46.424Z,10.53
2019-06-26T09:56:02.357Z,9.53
2019-06-26T09:58:30.322Z,11.17
2019-06-26T10:00:58.061Z,10.73
2019-06-26T10:03:25.922Z,11.33
2019-06-26T10:05:53.606Z,10.47
2019-06-26T10:08:21.321Z,10.30
2019-06-26T10:10:49.002Z,8.83
2019-06-26T10:13:16.680Z,9.90
2019-06-26T10:15:44.425Z,8.47
2019-06-26T10:18:12.137Z,9.17
2019-06-26T10:20:39.833Z,9.87
2019-06-26T10:23:07.878Z,9.50
2019-06-26T10:25:35.611Z,10.03
2019-06-26T10:28:03.237Z,9.53
2019-06-26T10:30:30.952Z,7.00
2019-06-26T10:32:58.958Z,8.57
2019-06-26T10:35:27.011Z,8.63
2019-06-26T10:37:54.709Z,8.20
2019-06-26T10:40:22.484Z,8.63
2019-06-26T10:42:50.206Z,9.33
2019-06-26T10:45:17.845Z,8.40
2019-06-26T10:47:45.522Z,8.60
2019-06-26T10:50:13.400Z,9.27
2019-06-26T10:52:41.103Z,7.83
2019-06-26T10:55:09.066Z,8.27
2019-06-26T10:57:36.779Z,6.57
2019-06-26T11:00:08.194Z,8.13
2019-06-26T11:02:35.853Z,8.77
2019-06-26T11:05:05.090Z,9.23
2019-06-26T11:07:36.259Z,7.17
2019-06-26T11:10:02.046Z,7.70
2019-06-26T11:12:30.011Z,7.13
2019-06-26T11:14:57.849Z,7.50
2019-06-26T11:17:25.579Z,7.70
2019-06-26T11:19:55.502Z,7.27
2019-06-26T11:22:22.667Z,7.50
2019-06-26T11:24:50.464Z,8.33
2019-06-26T11:27:18.259Z,6.90
2019-06-26T11:29:46.114Z,6.97
2019-06-26T11:32:13.754Z,8.13
2019-06-26T11:34:41.477Z,6.83
2019-06-26T11:37:09.104Z,7.00
2019-06-26T11:39:36.755Z,8.17
2019-06-26T11:42:05.538Z,7.40
2019-06-26T11:44:33.294Z,7.47
2019-06-26T11:47:01.229Z,6.93
2019-06-26T11:49:29.326Z,7.17
2019-06-26T11:51:57.212Z,7.70
2019-06-26T11:54:25.390Z,6.47
2019-06-26T11:56:53.049Z,7.17
2019-06-26T11:59:20.990Z,7.43
2019-06-26T12:01:48.663Z,6.90
2019-06-26T12:04:16.585Z,6.20
2019-06-26T12:06:46.068Z,6.13
2019-06-26T12:09:13.991Z,6.10
2019-06-26T12:11:41.939Z,7.37
2019-06-26T12:14:09.577Z,7.67
2019-06-26T12:16:37.273Z,6.93
2019-06-26T12:19:04.923Z,8.13
2019-06-26T12:21:32.881Z,7.23
2019-06-26T12:24:00.564Z,6.47
2019-06-26T12:26:28.660Z,6.23
2019-06-26T12:28:56.345Z,7.40
2019-06-26T12:31:24.088Z,6.60
2019-06-26T12:33:52.133Z,7.67
2019-06-26T12:36:19.970Z,7.87
2019-06-26T12:38:47.809Z,8.03
2019-06-26T12:41:15.815Z,7.73
2019-06-26T12:43:43.573Z,7.70
2019-06-26T12:46:11.597Z,7.27
2019-06-26T12:48:39.434Z,7.50
2019-06-26T12:51:07.203Z,7.10
2019-06-26T12:53:34.919Z,6.60
2019-06-26T12:56:02.621Z,8.00
2019-06-26T12:58:30.314Z,7.87
2019-06-26T13:00:58.349Z,8.43
2019-06-26T13:03:26.457Z,7.53
2019-06-26T13:05:54.333Z,7.93
2019-06-26T13:08:22.336Z,7.37
2019-06-26T13:10:50.674Z,7.23
2019-06-26T13:13:18.481Z,6.40
2019-06-26T13:15:46.365Z,7.87
2019-06-26T13:18:14.023Z,6.77
2019-06-26T13:20:52.084Z,7.50
2019-06-26T13:23:14.627Z,7.83
2019-06-26T13:25:40.516Z,7.30
2019-06-26T13:28:08.562Z,7.53
2019-06-26T13:30:37.236Z,7.80
2019-06-26T13:33:04.929Z,7.07
2019-06-26T13:35:32.565Z,7.50
2019-06-26T13:38:00.245Z,7.70
2019-06-26T13:40:27.965Z,7.87
2019-06-26T13:42:55.776Z,7.50
2019-06-26T13:45:23.822Z,6.70
2019-06-26T13:47:51.481Z,6.60
2019-06-26T13:50:19.232Z,6.20
2019-06-26T13:52:46.917Z,6.70
2019-06-26T13:55:14.980Z,5.87
2019-06-26T13:57:42.619Z,6.77
2019-06-26T14:00:10.570Z,6.63
2019-06-26T14:02:38.282Z,6.60
2019-06-26T14:05:07.033Z,6.50
2019-06-26T14:07:34.687Z,6.30
2019-06-26T14:10:02.410Z,6.37
2019-06-26T14:12:30.066Z,5.90
2019-06-26T14:14:58.334Z,6.47
2019-06-26T14:17:26.380Z,7.80
2019-06-26T14:19:54.469Z,6.10
2019-06-26T14:22:22.534Z,6.53
2019-06-26T14:24:54.041Z,6.67
2019-06-26T14:27:20.350Z,7.03
2019-06-26T14:29:48.481Z,6.47
2019-06-26T14:32:16.546Z,6.83
2019-06-26T14:34:44.442Z,6.30
2019-06-26T14:37:12.068Z,5.20
2019-06-26T14:39:41.087Z,6.00
2019-06-26T14:42:09.037Z,6.50
2019-06-26T14:44:36.709Z,6.60
2019-06-26T14:47:04.508Z,6.87
2019-06-26T14:49:32.186Z,7.10
2019-06-26T14:52:00.173Z,7.50
2019-06-26T14:54:27.832Z,7.10
2019-06-26T14:56:55.581Z,7.20
2019-06-26T14:59:23.248Z,6.50
2019-06-26T15:01:50.914Z,7.10
2019-06-26T15:04:18.595Z,7.30
2019-06-26T15:06:46.243Z,6.00
2019-06-26T15:09:14.209Z,6.73
2019-06-26T15:11:41.901Z,7.10
2019-06-26T15:14:09.780Z,7.70
2019-06-26T15:16:37.408Z,7.50
2019-06-26T15:19:05.075Z,8.10
2019-06-26T15:21:32.928Z,8.47
2019-06-26T15:24:00.828Z,9.30
2019-06-26T15:26:28.615Z,9.40
2019-06-26T15:28:56.620Z,8.73
2019-06-26T15:31:24.322Z,10.03
2019-06-26T15:33:52.243Z,9.07
2019-06-26T15:36:20.317Z,9.07
2019-06-26T15:38:48.058Z,9.93
2019-06-26T15:41:15.673Z,10.13
2019-06-26T15:43:43.380Z,8.93
2019-06-26T15:46:11.245Z,8.80
2019-06-26T15:48:38.972Z,9.10
2019-06-26T15:51:06.705Z,9.07
2019-06-26T15:53:34.376Z,9.50
2019-06-26T15:56:02.255Z,8.87
2019-06-26T15:58:30.112Z,8.60
2019-06-26T16:00:58.027Z,8.47
2019-06-26T16:03:25.946Z,8.63
2019-06-26T16:05:53.812Z,8.97
2019-06-26T16:08:21.542Z,9.20
2019-06-26T16:10:49.246Z,8.23
2019-06-26T16:13:16.939Z,8.60
2019-06-26T16:15:44.592Z,8.83
2019-06-26T16:18:13.872Z,9.03
2019-06-26T16:20:41.563Z,8.30
2019-06-26T16:23:09.518Z,8.40
2019-06-26T16:25:37.564Z,8.97
2019-06-26T16:28:06.268Z,8.75
2019-06-26T16:30:34.391Z,8.57
2019-06-26T16:33:02.095Z,8.93
2019-06-26T16:35:30.083Z,8.40
2019-06-26T16:37:58.111Z,8.87
2019-06-26T16:40:26.042Z,9.10
2019-06-26T16:42:53.718Z,8.40
2019-06-26T16:45:21.995Z,9.50
2019-06-26T16:47:49.663Z,8.77
2019-06-26T16:50:17.574Z,11.70
2019-06-26T16:52:49.619Z,8.53
2019-06-26T16:55:15.271Z,9.03
2019-06-26T16:57:43.435Z,8.30
2019-06-26T17:00:11.888Z,8.47
2019-06-26T17:02:40.011Z,8.30
2019-06-26T17:05:07.997Z,8.30
2019-06-26T17:07:35.677Z,8.57
2019-06-26T17:10:04.974Z,7.77
2019-06-26T17:12:32.708Z,7.27
2019-06-26T17:15:04.007Z,8.87
2019-06-26T17:17:30.388Z,8.43
2019-06-26T17:19:58.349Z,8.53
2019-06-26T17:22:26.009Z,8.17
2019-06-26T17:24:53.684Z,9.73
2019-06-26T17:27:21.808Z,8.63
2019-06-26T17:29:49.509Z,7.83
2019-06-26T17:32:17.542Z,7.87
2019-06-26T17:34:45.282Z,8.77
2019-06-26T17:37:13.404Z,8.60
2019-06-26T17:39:41.270Z,8.83
2019-06-26T17:42:09.278Z,8.80
2019-06-26T17:44:37.219Z,8.30
2019-06-26T17:47:05.570Z,7.50
2019-06-26T17:49:33.670Z,8.60
2019-06-26T17:52:01.374Z,8.57
2019-06-26T17:54:29.146Z,7.97
2019-06-26T17:56:56.817Z,8.87
2019-06-26T17:59:24.830Z,8.60
2019-06-26T18:01:52.623Z,9.17
2019-06-26T18:04:20.578Z,8.87
2019-06-26T18:06:50.497Z,8.97
2019-06-26T18:09:18.273Z,9.13
2019-06-26T18:11:46.133Z,8.50
2019-06-26T18:14:13.842Z,8.87
2019-06-26T18:16:42.184Z,8.57
2019-06-26T18:19:09.868Z,8.37
2019-06-26T18:21:37.995Z,8.90
2019-06-26T18:24:05.981Z,9.30
2019-06-26T18:26:33.648Z,10.23
2019-06-26T18:29:01.474Z,10.20
2019-06-26T18:31:30.675Z,8.57
2019-06-26T18:33:58.521Z,9.33
2019-06-26T18:36:26.378Z,9.07
2019-06-26T18:38:54.084Z,9.83
2019-06-26T18:41:22.139Z,9.13
2019-06-26T18:43:49.764Z,9.27
2019-06-26T18:46:17.666Z,9.10
2019-06-26T18:48:45.751Z,8.63
2019-06-26T18:51:13.495Z,8.80
2019-06-26T18:53:53.137Z,8.80
2019-06-26T18:56:10.735Z,9.63
2019-06-26T18:58:38.642Z,9.63
2019-06-26T19:01:07.309Z,10.03
2019-06-26T19:03:35.248Z,9.63
2019-06-26T19:06:02.896Z,8.73
2019-06-26T19:08:30.577Z,8.73
2019-06-26T19:10:58.727Z,16.33
2019-06-26T19:13:26.762Z,20.53
2019-06-26T19:15:57.613Z,12.17
2019-06-26T19:18:25.670Z,11.20
2019-06-26T19:20:53.842Z,13.33
2019-06-26T19:23:22.050Z,34.83
2019-06-26T19:25:49.668Z,9.80
2019-06-26T19:28:17.506Z,59.33
2019-06-26T19:30:45.187Z,32.27
2019-06-26T19:33:12.884Z,18.77
2019-06-26T19:35:40.641Z,25.77
2019-06-26T19:38:08.490Z,24.10
2019-06-26T19:40:36.611Z,15.33
2019-06-26T19:43:04.530Z,13.20
2019-06-26T19:45:32.209Z,14.77
2019-06-26T19:47:59.859Z,15.03
2019-06-26T19:50:27.645Z,17.27
2019-06-26T19:52:55.789Z,19.73
2019-06-26T19:55:23.436Z,11.50
2019-06-26T19:57:51.643Z,13.83
2019-06-26T20:00:19.286Z,11.43
2019-06-26T20:02:47.159Z,12.37
2019-06-26T20:05:14.943Z,11.70
2019-06-26T20:07:43.065Z,11.03
2019-06-26T20:10:11.091Z,12.03
2019-06-26T20:12:38.787Z,9.43
2019-06-26T20:15:06.973Z,9.77
2019-06-26T20:17:34.708Z,9.83
2019-06-26T20:20:02.569Z,10.40
2019-06-26T20:22:30.216Z,9.83
2019-06-26T20:24:57.964Z,9.73
2019-06-26T20:27:25.619Z,9.40
2019-06-26T20:29:53.598Z,9.47
2019-06-26T20:32:21.460Z,10.23
2019-06-26T20:34:49.180Z,10.13
2019-06-26T20:37:16.847Z,10.23
2019-06-26T20:39:44.597Z,10.20
2019-06-26T20:42:12.536Z,10.90
2019-06-26T20:44:40.182Z,10.80
2019-06-26T20:47:08.086Z,10.47
2019-06-26T20:49:49.077Z,10.77
2019-06-26T20:52:05.675Z,11.35
2019-06-26T20:54:33.439Z,11.13
2019-06-26T20:57:01.109Z,10.43
2019-06-26T20:59:28.945Z,9.07
2019-06-26T21:01:56.856Z,10.53
2019-06-26T21:04:24.604Z,10.60
2019-06-26T21:06:52.338Z,11.20
2019-06-26T21:09:20.578Z,10.93
2019-06-26T21:11:48.425Z,11.07
2019-06-26T21:14:16.246Z,11.70
2019-06-26T21:16:43.926Z,11.50
2019-06-26T21:19:11.636Z,11.07
2019-06-26T21:21:39.674Z,11.67
2019-06-26T21:24:07.689Z,11.23
2019-06-26T21:26:35.333Z,10.90
2019-06-26T21:29:03.481Z,12.50
2019-06-26T21:31:31.146Z,10.90
2019-06-26T21:33:59.083Z,11.40
2019-06-26T21:36:26.742Z,11.63
2019-06-26T21:38:54.455Z,10.77
2019-06-26T21:41:22.158Z,11.50
2019-06-26T21:43:49.872Z,11.63
2019-06-26T21:46:17.552Z,10.93
2019-06-26T21:48:45.383Z,10.93
2019-06-26T21:51:13.084Z,12.97
2019-06-26T21:53:41.105Z,11.63
2019-06-26T21:56:08.821Z,11.87
2019-06-26T21:58:36.723Z,11.67
2019-06-26T22:01:04.426Z,11.77
2019-06-26T22:03:32.295Z,13.10
2019-06-26T22:06:00.193Z,13.10
2019-06-26T22:08:27.887Z,12.50
2019-06-26T22:10:55.750Z,12.13
2019-06-26T22:13:23.787Z,11.67
2019-06-26T22:15:51.447Z,12.40
2019-06-26T22:18:19.129Z,13.20
2019-06-26T22:20:46.935Z,13.70
2019-06-26T22:23:14.685Z,13.00
2019-06-26T22:25:50.983Z,13.47
2019-06-26T22:28:12.223Z,13.17
2019-06-26T22:30:39.939Z,12.47
2019-06-26T22:33:07.642Z,12.43
2019-06-26T22:35:35.376Z,12.70
2019-06-26T22:38:03.427Z,12.87
2019-06-26T22:40:31.094Z,14.23
2019-06-26T22:42:59.102Z,13.70
2019-06-26T22:45:26.805Z,13.37
2019-06-26T22:47:54.883Z,13.33
2019-06-26T22:50:22.971Z,13.00
2019-06-26T22:52:50.675Z,13.37
2019-06-26T22:55:18.446Z,13.57
2019-06-26T22:57:46.146Z,13.17
2019-06-26T23:00:15.863Z,13.23
2019-06-26T23:02:43.579Z,13.30
2019-06-26T23:05:11.435Z,13.23
2019-06-26T23:07:39.199Z,12.73
2019-06-26T23:10:07.383Z,11.70
2019-06-26T23:12:35.070Z,13.40
2019-06-26T23:15:03.128Z,13.10
2019-06-26T23:17:30.838Z,12.30
2019-06-26T23:19:58.562Z,11.67
2019-06-26T23:22:26.246Z,12.27
2019-06-26T23:24:53.967Z,12.43
2019-06-26T23:27:22.155Z,12.37
2019-06-26T23:29:49.888Z,12.80
2019-06-26T23:32:17.614Z,12.03
2019-06-26T23:34:45.655Z,12.30
2019-06-26T23:37:13.328Z,11.73
2019-06-26T23:39:41.011Z,11.90
2019-06-26T23:42:08.769Z,12.53
2019-06-26T23:44:36.446Z,11.63
2019-06-26T23:47:04.215Z,12.60
2019-06-26T23:49:31.919Z,11.33
2019-06-26T23:51:59.623Z,13.50
2019-06-26T23:54:27.315Z,13.47
2019-06-26T23:56:54.998Z,12.70
2019-06-26T23:59:22.715Z,12.47
